sensor_id;sensor_type;location;lat;lon;timestamp;temperature;humidity
5246;DHT22;54412;51.206;6.888;2023-07-20T00:01:23;19.70;99.90
5246;DHT22;54412;51.206;6.888;2023-07-20T00:03:49;19.70;99.90
5246;DHT22;54412;51.206;6.888;2023-07-20T00:06:21;19.70;99.90
5246;DHT22;54412;51.206;6.888;2023-07-20T00:08:47;19.70;99.90
5246;DHT22;54412;51.206;6.888;2023-07-20T00:11:13;19.60;99.90
5246;DHT22;54412;51.206;6.888;2023-07-20T00:13:39;19.50;99.90
5246;DHT22;54412;51.206;6.888;2023-07-20T00:16:05;19.40;99.90
5246;DHT22;54412;51.206;6.888;2023-07-20T00:18:31;19.40;99.90
5246;DHT22;54412;51.206;6.888;2023-07-20T00:20:57;19.40;99.90
5246;DHT22;54412;51.206;6.888;2023-07-20T00:23:22;19.50;99.90
5246;DHT22;54412;51.206;6.888;2023-07-20T00:25:48;19.50;99.90
5246;DHT22;54412;51.206;6.888;2023-07-20T00:28:14;19.50;99.90
5246;DHT22;54412;51.206;6.888;2023-07-20T00:30:40;19.40;99.90
5246;DHT22;54412;51.206;6.888;2023-07-20T00:33:09;19.50;99.90
5246;DHT22;54412;51.206;6.888;2023-07-20T00:35:36;19.40;99.90
5246;DHT22;54412;51.206;6.888;2023-07-20T00:38:03;19.30;99.90
5246;DHT22;54412;51.206;6.888;2023-07-20T00:40:36;19.30;99.90
5246;DHT22;54412;51.206;6.888;2023-07-20T00:43:04;19.40;99.90
5246;DHT22;54412;51.206;6.888;2023-07-20T00:45:31;19.40;99.90
5246;DHT22;54412;51.206;6.888;2023-07-20T00:47:59;19.40;99.90
5246;DHT22;54412;51.206;6.888;2023-07-20T00:50:27;19.40;99.90
5246;DHT22;54412;51.206;6.888;2023-07-20T00:52:54;19.40;99.90
5246;DHT22;54412;51.206;6.888;2023-07-20T00:55:21;19.50;99.90
5246;DHT22;54412;51.206;6.888;2023-07-20T00:57:48;19.50;99.90
5246;DHT22;54412;51.206;6.888;2023-07-20T01:00:16;19.50;99.90
5246;DHT22;54412;51.206;6.888;2023-07-20T01:02:41;19.60;99.90
5246;DHT22;54412;51.206;6.888;2023-07-20T01:05:08;19.60;99.90
5246;DHT22;54412;51.206;6.888;2023-07-20T01:07:38;19.50;99.90
5246;DHT22;54412;51.206;6.888;2023-07-20T01:10:19;19.60;99.90
5246;DHT22;54412;51.206;6.888;2023-07-20T01:12:52;19.60;99.90
5246;DHT22;54412;51.206;6.888;2023-07-20T01:15:18;19.20;99.90
5246;DHT22;54412;51.206;6.888;2023-07-20T01:17:45;19.30;99.90
5246;DHT22;54412;51.206;6.888;2023-07-20T01:20:14;19.40;99.90
5246;DHT22;54412;51.206;6.888;2023-07-20T01:23:14;19.40;99.90
5246;DHT22;54412;51.206;6.888;2023-07-20T01:29:22;19.30;99.90
5246;DHT22;54412;51.206;6.888;2023-07-20T01:32:06;19.30;99.90
5246;DHT22;54412;51.206;6.888;2023-07-20T01:34:35;19.40;99.90
5246;DHT22;54412;51.206;6.888;2023-07-20T01:37:02;19.30;99.90
5246;DHT22;54412;51.206;6.888;2023-07-20T01:39:29;19.30;99.90
5246;DHT22;54412;51.206;6.888;2023-07-20T01:41:57;19.40;99.90
5246;DHT22;54412;51.206;6.888;2023-07-20T01:44:23;19.40;99.90
5246;DHT22;54412;51.206;6.888;2023-07-20T01:46:49;19.30;99.90
5246;DHT22;54412;51.206;6.888;2023-07-20T01:49:14;19.30;99.90
5246;DHT22;54412;51.206;6.888;2023-07-20T01:51:40;19.40;99.90
5246;DHT22;54412;51.206;6.888;2023-07-20T01:54:06;19.40;99.90
5246;DHT22;54412;51.206;6.888;2023-07-20T01:56:32;19.40;99.90
5246;DHT22;54412;51.206;6.888;2023-07-20T01:58:57;19.40;99.90
5246;DHT22;54412;51.206;6.888;2023-07-20T02:01:23;19.30;99.90
5246;DHT22;54412;51.206;6.888;2023-07-20T02:03:49;19.20;99.90
5246;DHT22;54412;51.206;6.888;2023-07-20T02:06:14;19.30;99.90
5246;DHT22;54412;51.206;6.888;2023-07-20T02:08:40;19.20;99.90
5246;DHT22;54412;51.206;6.888;2023-07-20T02:11:06;19.20;99.90
5246;DHT22;54412;51.206;6.888;2023-07-20T02:13:31;19.20;99.90
5246;DHT22;54412;51.206;6.888;2023-07-20T02:15:57;19.20;99.90
5246;DHT22;54412;51.206;6.888;2023-07-20T02:18:23;19.00;99.90
5246;DHT22;54412;51.206;6.888;2023-07-20T02:20:48;19.10;99.90
5246;DHT22;54412;51.206;6.888;2023-07-20T02:23:14;19.00;99.90
5246;DHT22;54412;51.206;6.888;2023-07-20T02:25:40;19.20;99.90
5246;DHT22;54412;51.206;6.888;2023-07-20T02:28:07;19.10;99.90
5246;DHT22;54412;51.206;6.888;2023-07-20T02:30:38;19.00;99.90
5246;DHT22;54412;51.206;6.888;2023-07-20T02:33:04;19.00;99.90
5246;DHT22;54412;51.206;6.888;2023-07-20T02:35:32;19.10;99.90
5246;DHT22;54412;51.206;6.888;2023-07-20T02:37:58;19.00;99.90
5246;DHT22;54412;51.206;6.888;2023-07-20T02:40:23;19.00;99.90
5246;DHT22;54412;51.206;6.888;2023-07-20T02:42:49;19.10;99.90
5246;DHT22;54412;51.206;6.888;2023-07-20T02:45:15;19.00;99.90
5246;DHT22;54412;51.206;6.888;2023-07-20T02:47:41;18.90;99.90
5246;DHT22;54412;51.206;6.888;2023-07-20T02:50:08;19.00;99.90
5246;DHT22;54412;51.206;6.888;2023-07-20T02:52:34;19.10;99.90
5246;DHT22;54412;51.206;6.888;2023-07-20T02:54:59;19.10;99.90
5246;DHT22;54412;51.206;6.888;2023-07-20T02:57:26;19.00;99.90
5246;DHT22;54412;51.206;6.888;2023-07-20T02:59:52;19.00;99.90
5246;DHT22;54412;51.206;6.888;2023-07-20T03:02:18;19.10;99.90
5246;DHT22;54412;51.206;6.888;2023-07-20T03:04:43;19.00;99.90
5246;DHT22;54412;51.206;6.888;2023-07-20T03:07:09;18.90;99.90
5246;DHT22;54412;51.206;6.888;2023-07-20T03:09:35;18.80;99.90
5246;DHT22;54412;51.206;6.888;2023-07-20T03:12:01;18.90;99.90
5246;DHT22;54412;51.206;6.888;2023-07-20T03:14:27;18.90;99.90
5246;DHT22;54412;51.206;6.888;2023-07-20T03:16:53;18.90;99.90
5246;DHT22;54412;51.206;6.888;2023-07-20T03:19:19;18.80;99.90
5246;DHT22;54412;51.206;6.888;2023-07-20T03:21:44;18.70;99.90
5246;DHT22;54412;51.206;6.888;2023-07-20T03:24:10;18.80;99.90
5246;DHT22;54412;51.206;6.888;2023-07-20T03:26:36;18.80;99.90
5246;DHT22;54412;51.206;6.888;2023-07-20T03:29:02;18.80;99.90
5246;DHT22;54412;51.206;6.888;2023-07-20T03:31:29;18.80;99.90
5246;DHT22;54412;51.206;6.888;2023-07-20T03:33:55;18.70;99.90
5246;DHT22;54412;51.206;6.888;2023-07-20T03:36:20;18.70;99.90
5246;DHT22;54412;51.206;6.888;2023-07-20T03:38:46;18.60;99.90
5246;DHT22;54412;51.206;6.888;2023-07-20T03:41:12;18.70;99.90
5246;DHT22;54412;51.206;6.888;2023-07-20T03:43:38;18.70;99.90
5246;DHT22;54412;51.206;6.888;2023-07-20T03:46:04;18.70;99.90
5246;DHT22;54412;51.206;6.888;2023-07-20T03:48:33;18.70;99.90
5246;DHT22;54412;51.206;6.888;2023-07-20T03:50:59;18.60;99.90
5246;DHT22;54412;51.206;6.888;2023-07-20T03:53:26;18.60;99.90
5246;DHT22;54412;51.206;6.888;2023-07-20T03:55:55;18.70;99.90
5246;DHT22;54412;51.206;6.888;2023-07-20T03:58:21;18.50;99.90
5246;DHT22;54412;51.206;6.888;2023-07-20T04:00:49;18.40;99.90
5246;DHT22;54412;51.206;6.888;2023-07-20T04:03:19;18.50;99.90
5246;DHT22;54412;51.206;6.888;2023-07-20T04:05:45;18.60;99.90
5246;DHT22;54412;51.206;6.888;2023-07-20T04:08:11;18.70;99.90
5246;DHT22;54412;51.206;6.888;2023-07-20T04:10:37;18.60;99.90
5246;DHT22;54412;51.206;6.888;2023-07-20T04:13:04;18.50;99.90
5246;DHT22;54412;51.206;6.888;2023-07-20T04:15:30;18.50;99.90
5246;DHT22;54412;51.206;6.888;2023-07-20T04:17:56;18.50;99.90
5246;DHT22;54412;51.206;6.888;2023-07-20T04:20:23;18.70;99.90
5246;DHT22;54412;51.206;6.888;2023-07-20T04:22:49;18.70;99.90
5246;DHT22;54412;51.206;6.888;2023-07-20T04:25:15;18.70;99.90
5246;DHT22;54412;51.206;6.888;2023-07-20T04:27:43;18.60;99.90
5246;DHT22;54412;51.206;6.888;2023-07-20T04:30:09;18.60;99.90
5246;DHT22;54412;51.206;6.888;2023-07-20T04:32:37;18.70;99.90
5246;DHT22;54412;51.206;6.888;2023-07-20T04:35:06;18.70;99.90
5246;DHT22;54412;51.206;6.888;2023-07-20T04:37:33;18.90;99.90
5246;DHT22;54412;51.206;6.888;2023-07-20T04:39:59;18.70;99.90
5246;DHT22;54412;51.206;6.888;2023-07-20T04:42:24;18.80;99.90
5246;DHT22;54412;51.206;6.888;2023-07-20T04:44:50;18.80;99.90
5246;DHT22;54412;51.206;6.888;2023-07-20T04:47:16;18.80;99.90
5246;DHT22;54412;51.206;6.888;2023-07-20T04:49:41;18.90;99.90
5246;DHT22;54412;51.206;6.888;2023-07-20T04:52:07;18.90;99.90
5246;DHT22;54412;51.206;6.888;2023-07-20T04:54:33;18.90;99.90
5246;DHT22;54412;51.206;6.888;2023-07-20T04:56:59;19.00;99.90
5246;DHT22;54412;51.206;6.888;2023-07-20T04:59:24;19.10;99.90
5246;DHT22;54412;51.206;6.888;2023-07-20T05:01:50;19.00;99.90
5246;DHT22;54412;51.206;6.888;2023-07-20T05:04:16;19.10;99.90
5246;DHT22;54412;51.206;6.888;2023-07-20T05:06:41;19.10;99.90
5246;DHT22;54412;51.206;6.888;2023-07-20T05:09:08;19.20;99.90
5246;DHT22;54412;51.206;6.888;2023-07-20T05:11:33;19.10;99.90
5246;DHT22;54412;51.206;6.888;2023-07-20T05:14:00;19.10;99.90
5246;DHT22;54412;51.206;6.888;2023-07-20T05:16:25;19.20;99.90
5246;DHT22;54412;51.206;6.888;2023-07-20T05:18:51;19.20;99.90
5246;DHT22;54412;51.206;6.888;2023-07-20T05:21:17;19.20;99.90
5246;DHT22;54412;51.206;6.888;2023-07-20T05:23:42;19.40;99.90
5246;DHT22;54412;51.206;6.888;2023-07-20T05:26:09;19.40;99.90
5246;DHT22;54412;51.206;6.888;2023-07-20T05:28:34;19.40;99.90
5246;DHT22;54412;51.206;6.888;2023-07-20T05:31:02;19.30;99.90
5246;DHT22;54412;51.206;6.888;2023-07-20T05:33:28;19.40;99.90
5246;DHT22;54412;51.206;6.888;2023-07-20T05:35:54;19.40;99.90
5246;DHT22;54412;51.206;6.888;2023-07-20T05:38:20;19.40;99.90
5246;DHT22;54412;51.206;6.888;2023-07-20T05:40:45;19.40;99.90
5246;DHT22;54412;51.206;6.888;2023-07-20T05:43:12;19.40;99.90
5246;DHT22;54412;51.206;6.888;2023-07-20T05:45:41;19.40;99.90
5246;DHT22;54412;51.206;6.888;2023-07-20T05:48:09;19.30;99.90
5246;DHT22;54412;51.206;6.888;2023-07-20T05:50:42;19.30;99.90
5246;DHT22;54412;51.206;6.888;2023-07-20T05:53:11;19.30;99.90
5246;DHT22;54412;51.206;6.888;2023-07-20T05:55:36;19.40;99.90
5246;DHT22;54412;51.206;6.888;2023-07-20T05:58:02;19.50;99.90
5246;DHT22;54412;51.206;6.888;2023-07-20T06:00:29;19.50;99.90
5246;DHT22;54412;51.206;6.888;2023-07-20T06:02:55;19.50;99.90
5246;DHT22;54412;51.206;6.888;2023-07-20T06:05:24;19.50;99.90
5246;DHT22;54412;51.206;6.888;2023-07-20T06:07:50;19.40;99.90
5246;DHT22;54412;51.206;6.888;2023-07-20T06:10:16;19.50;99.90
5246;DHT22;54412;51.206;6.888;2023-07-20T06:12:42;19.50;99.90
5246;DHT22;54412;51.206;6.888;2023-07-20T06:15:42;19.50;99.90
5246;DHT22;54412;51.206;6.888;2023-07-20T06:18:08;19.60;99.90
5246;DHT22;54412;51.206;6.888;2023-07-20T06:20:34;19.60;99.90
5246;DHT22;54412;51.206;6.888;2023-07-20T06:23:00;19.50;99.90
5246;DHT22;54412;51.206;6.888;2023-07-20T06:25:26;19.60;99.90
5246;DHT22;54412;51.206;6.888;2023-07-20T06:27:52;19.70;99.90
5246;DHT22;54412;51.206;6.888;2023-07-20T06:30:18;19.70;99.90
5246;DHT22;54412;51.206;6.888;2023-07-20T06:32:43;19.90;99.90
5246;DHT22;54412;51.206;6.888;2023-07-20T06:35:09;19.90;99.90
5246;DHT22;54412;51.206;6.888;2023-07-20T06:37:35;20.00;99.90
5246;DHT22;54412;51.206;6.888;2023-07-20T06:40:02;19.90;99.90
5246;DHT22;54412;51.206;6.888;2023-07-20T06:42:32;19.80;99.90
5246;DHT22;54412;51.206;6.888;2023-07-20T06:44:57;19.70;99.90
5246;DHT22;54412;51.206;6.888;2023-07-20T06:47:23;19.70;99.90
5246;DHT22;54412;51.206;6.888;2023-07-20T06:49:49;19.70;99.90
5246;DHT22;54412;51.206;6.888;2023-07-20T06:52:15;19.70;99.90
5246;DHT22;54412;51.206;6.888;2023-07-20T06:54:41;19.80;99.90
5246;DHT22;54412;51.206;6.888;2023-07-20T06:57:06;19.90;99.90
5246;DHT22;54412;51.206;6.888;2023-07-20T06:59:32;20.10;99.90
5246;DHT22;54412;51.206;6.888;2023-07-20T07:01:57;20.10;99.90
5246;DHT22;54412;51.206;6.888;2023-07-20T07:04:23;20.10;99.90
5246;DHT22;54412;51.206;6.888;2023-07-20T07:06:49;20.20;99.90
5246;DHT22;54412;51.206;6.888;2023-07-20T07:09:14;20.10;99.90
5246;DHT22;54412;51.206;6.888;2023-07-20T07:11:40;20.30;99.90
5246;DHT22;54412;51.206;6.888;2023-07-20T07:14:06;20.40;99.90
5246;DHT22;54412;51.206;6.888;2023-07-20T07:16:31;20.50;99.90
5246;DHT22;54412;51.206;6.888;2023-07-20T07:18:57;20.50;99.90
5246;DHT22;54412;51.206;6.888;2023-07-20T07:21:23;20.50;99.90
5246;DHT22;54412;51.206;6.888;2023-07-20T07:23:51;20.50;99.90
5246;DHT22;54412;51.206;6.888;2023-07-20T07:26:18;20.60;99.90
5246;DHT22;54412;51.206;6.888;2023-07-20T07:28:44;20.60;99.90
5246;DHT22;54412;51.206;6.888;2023-07-20T07:31:10;20.40;99.90
5246;DHT22;54412;51.206;6.888;2023-07-20T07:33:36;20.30;99.90
5246;DHT22;54412;51.206;6.888;2023-07-20T07:36:01;20.50;99.90
5246;DHT22;54412;51.206;6.888;2023-07-20T07:38:27;20.40;99.90
5246;DHT22;54412;51.206;6.888;2023-07-20T07:40:53;20.50;99.90
5246;DHT22;54412;51.206;6.888;2023-07-20T07:43:19;20.40;99.90
5246;DHT22;54412;51.206;6.888;2023-07-20T07:45:45;20.50;99.90
5246;DHT22;54412;51.206;6.888;2023-07-20T07:48:10;20.70;99.90
5246;DHT22;54412;51.206;6.888;2023-07-20T07:50:38;20.80;99.90
5246;DHT22;54412;51.206;6.888;2023-07-20T07:53:05;20.90;99.90
5246;DHT22;54412;51.206;6.888;2023-07-20T07:55:32;20.80;99.90
5246;DHT22;54412;51.206;6.888;2023-07-20T07:57:58;20.70;99.90
5246;DHT22;54412;51.206;6.888;2023-07-20T08:00:24;20.60;99.90
5246;DHT22;54412;51.206;6.888;2023-07-20T08:02:50;20.80;99.90
5246;DHT22;54412;51.206;6.888;2023-07-20T08:05:16;20.80;99.90
5246;DHT22;54412;51.206;6.888;2023-07-20T08:07:42;21.10;99.90
5246;DHT22;54412;51.206;6.888;2023-07-20T08:10:08;21.30;99.90
5246;DHT22;54412;51.206;6.888;2023-07-20T08:12:35;21.40;99.90
5246;DHT22;54412;51.206;6.888;2023-07-20T08:15:01;21.30;99.90
5246;DHT22;54412;51.206;6.888;2023-07-20T08:17:26;20.90;99.90
5246;DHT22;54412;51.206;6.888;2023-07-20T08:19:52;20.80;99.90
5246;DHT22;54412;51.206;6.888;2023-07-20T08:22:18;20.90;99.90
5246;DHT22;54412;51.206;6.888;2023-07-20T08:24:43;20.90;99.90
5246;DHT22;54412;51.206;6.888;2023-07-20T08:27:10;21.10;99.90
5246;DHT22;54412;51.206;6.888;2023-07-20T08:29:36;21.30;99.90
5246;DHT22;54412;51.206;6.888;2023-07-20T08:32:03;21.50;99.90
5246;DHT22;54412;51.206;6.888;2023-07-20T08:34:29;21.60;99.90
5246;DHT22;54412;51.206;6.888;2023-07-20T08:36:56;21.60;99.90
5246;DHT22;54412;51.206;6.888;2023-07-20T08:39:22;21.80;99.90
5246;DHT22;54412;51.206;6.888;2023-07-20T08:41:49;22.00;99.90
5246;DHT22;54412;51.206;6.888;2023-07-20T08:44:17;22.10;99.90
5246;DHT22;54412;51.206;6.888;2023-07-20T08:46:43;22.20;99.90
5246;DHT22;54412;51.206;6.888;2023-07-20T08:49:11;22.30;99.90
5246;DHT22;54412;51.206;6.888;2023-07-20T08:51:37;22.10;99.90
5246;DHT22;54412;51.206;6.888;2023-07-20T08:54:04;22.00;99.90
5246;DHT22;54412;51.206;6.888;2023-07-20T08:56:31;21.90;99.90
5246;DHT22;54412;51.206;6.888;2023-07-20T08:58:59;21.80;99.90
5246;DHT22;54412;51.206;6.888;2023-07-20T09:01:28;21.60;99.90
5246;DHT22;54412;51.206;6.888;2023-07-20T09:03:55;21.50;99.90
5246;DHT22;54412;51.206;6.888;2023-07-20T09:06:21;21.40;99.90
5246;DHT22;54412;51.206;6.888;2023-07-20T09:08:47;21.20;99.90
5246;DHT22;54412;51.206;6.888;2023-07-20T09:11:14;21.10;99.90
5246;DHT22;54412;51.206;6.888;2023-07-20T09:13:40;21.10;99.90
5246;DHT22;54412;51.206;6.888;2023-07-20T09:16:06;21.50;99.90
5246;DHT22;54412;51.206;6.888;2023-07-20T09:18:32;21.70;99.90
5246;DHT22;54412;51.206;6.888;2023-07-20T09:21:03;22.00;99.90
5246;DHT22;54412;51.206;6.888;2023-07-20T09:23:37;22.20;99.90
5246;DHT22;54412;51.206;6.888;2023-07-20T09:26:10;22.40;99.90
5246;DHT22;54412;51.206;6.888;2023-07-20T09:28:51;22.70;99.90
5246;DHT22;54412;51.206;6.888;2023-07-20T09:31:19;22.70;99.90
5246;DHT22;54412;51.206;6.888;2023-07-20T09:33:47;22.60;99.90
5246;DHT22;54412;51.206;6.888;2023-07-20T09:36:14;22.80;99.90
5246;DHT22;54412;51.206;6.888;2023-07-20T09:38:41;23.10;99.90
5246;DHT22;54412;51.206;6.888;2023-07-20T09:41:12;23.20;99.90
5246;DHT22;54412;51.206;6.888;2023-07-20T09:43:39;23.20;99.90
5246;DHT22;54412;51.206;6.888;2023-07-20T09:46:05;23.20;99.90
5246;DHT22;54412;51.206;6.888;2023-07-20T09:48:30;23.20;99.90
5246;DHT22;54412;51.206;6.888;2023-07-20T09:50:57;23.50;99.90
5246;DHT22;54412;51.206;6.888;2023-07-20T09:53:24;23.20;99.90
5246;DHT22;54412;51.206;6.888;2023-07-20T09:55:52;23.30;99.90
5246;DHT22;54412;51.206;6.888;2023-07-20T09:58:19;23.50;99.90
5246;DHT22;54412;51.206;6.888;2023-07-20T10:00:46;23.50;99.90
5246;DHT22;54412;51.206;6.888;2023-07-20T10:03:19;23.60;99.90
5246;DHT22;54412;51.206;6.888;2023-07-20T10:05:54;23.70;99.90
5246;DHT22;54412;51.206;6.888;2023-07-20T10:08:25;23.50;99.90
5246;DHT22;54412;51.206;6.888;2023-07-20T10:10:51;23.40;99.90
5246;DHT22;54412;51.206;6.888;2023-07-20T10:13:18;23.10;99.90
5246;DHT22;54412;51.206;6.888;2023-07-20T10:15:54;22.90;99.90
5246;DHT22;54412;51.206;6.888;2023-07-20T10:18:29;22.70;99.90
5246;DHT22;54412;51.206;6.888;2023-07-20T10:21:00;22.70;99.90
5246;DHT22;54412;51.206;6.888;2023-07-20T10:23:28;22.80;99.90
5246;DHT22;54412;51.206;6.888;2023-07-20T10:25:56;22.60;99.90
5246;DHT22;54412;51.206;6.888;2023-07-20T10:28:23;22.90;99.90
5246;DHT22;54412;51.206;6.888;2023-07-20T10:30:50;23.10;99.90
5246;DHT22;54412;51.206;6.888;2023-07-20T10:33:17;23.40;99.90
5246;DHT22;54412;51.206;6.888;2023-07-20T10:35:54;23.70;99.90
5246;DHT22;54412;51.206;6.888;2023-07-20T10:38:52;23.90;99.90
5246;DHT22;54412;51.206;6.888;2023-07-20T10:41:27;23.80;99.90
5246;DHT22;54412;51.206;6.888;2023-07-20T10:44:23;24.00;99.90
5246;DHT22;54412;51.206;6.888;2023-07-20T10:46:49;23.80;99.90
5246;DHT22;54412;51.206;6.888;2023-07-20T10:49:15;23.60;99.90
5246;DHT22;54412;51.206;6.888;2023-07-20T10:51:43;23.50;99.90
5246;DHT22;54412;51.206;6.888;2023-07-20T10:56:43;24.00;99.90
5246;DHT22;54412;51.206;6.888;2023-07-20T10:59:20;24.00;99.90
5246;DHT22;54412;51.206;6.888;2023-07-20T11:02:07;24.20;99.90
5246;DHT22;54412;51.206;6.888;2023-07-20T11:04:40;24.30;99.90
5246;DHT22;54412;51.206;6.888;2023-07-20T11:07:09;24.40;99.90
5246;DHT22;54412;51.206;6.888;2023-07-20T11:09:37;24.40;99.90
5246;DHT22;54412;51.206;6.888;2023-07-20T11:12:14;24.30;99.90
5246;DHT22;54412;51.206;6.888;2023-07-20T11:14:43;23.80;99.90
5246;DHT22;54412;51.206;6.888;2023-07-20T11:17:18;23.80;99.90
5246;DHT22;54412;51.206;6.888;2023-07-20T11:19:48;23.90;99.90
5246;DHT22;54412;51.206;6.888;2023-07-20T11:22:17;23.80;99.90
5246;DHT22;54412;51.206;6.888;2023-07-20T11:24:43;23.80;99.90
5246;DHT22;54412;51.206;6.888;2023-07-20T11:27:09;23.60;99.90
5246;DHT22;54412;51.206;6.888;2023-07-20T11:29:35;23.30;99.90
5246;DHT22;54412;51.206;6.888;2023-07-20T11:32:03;23.40;99.90
5246;DHT22;54412;51.206;6.888;2023-07-20T11:34:31;23.40;99.90
5246;DHT22;54412;51.206;6.888;2023-07-20T11:36:58;23.40;99.90
5246;DHT22;54412;51.206;6.888;2023-07-20T11:39:24;23.60;99.90
5246;DHT22;54412;51.206;6.888;2023-07-20T11:41:55;23.70;99.90
5246;DHT22;54412;51.206;6.888;2023-07-20T11:44:24;23.70;99.90
5246;DHT22;54412;51.206;6.888;2023-07-20T11:47:08;23.80;99.90
5246;DHT22;54412;51.206;6.888;2023-07-20T11:49:42;24.10;99.90
5246;DHT22;54412;51.206;6.888;2023-07-20T11:52:10;24.00;99.90
5246;DHT22;54412;51.206;6.888;2023-07-20T11:54:39;24.00;99.90
5246;DHT22;54412;51.206;6.888;2023-07-20T11:57:06;24.00;99.90
5246;DHT22;54412;51.206;6.888;2023-07-20T11:59:32;23.90;99.90
5246;DHT22;54412;51.206;6.888;2023-07-20T12:02:02;23.70;99.90
5246;DHT22;54412;51.206;6.888;2023-07-20T12:04:30;23.90;99.90
5246;DHT22;54412;51.206;6.888;2023-07-20T12:06:56;24.20;99.90
5246;DHT22;54412;51.206;6.888;2023-07-20T12:09:22;24.10;99.90
5246;DHT22;54412;51.206;6.888;2023-07-20T12:11:49;24.00;99.90
5246;DHT22;54412;51.206;6.888;2023-07-20T12:14:16;24.10;99.90
5246;DHT22;54412;51.206;6.888;2023-07-20T12:16:43;24.00;99.90
5246;DHT22;54412;51.206;6.888;2023-07-20T12:19:11;23.90;99.90
5246;DHT22;54412;51.206;6.888;2023-07-20T12:21:40;23.80;99.90
5246;DHT22;54412;51.206;6.888;2023-07-20T12:24:08;23.40;99.90
5246;DHT22;54412;51.206;6.888;2023-07-20T12:26:36;23.50;99.90
5246;DHT22;54412;51.206;6.888;2023-07-20T12:29:02;23.60;99.90
5246;DHT22;54412;51.206;6.888;2023-07-20T12:31:29;23.60;99.90
5246;DHT22;54412;51.206;6.888;2023-07-20T12:33:57;23.70;99.90
5246;DHT22;54412;51.206;6.888;2023-07-20T12:36:24;23.80;99.90
5246;DHT22;54412;51.206;6.888;2023-07-20T12:38:50;23.90;99.90
5246;DHT22;54412;51.206;6.888;2023-07-20T12:41:16;23.80;99.90
5246;DHT22;54412;51.206;6.888;2023-07-20T12:43:42;23.60;99.90
5246;DHT22;54412;51.206;6.888;2023-07-20T12:46:10;23.90;99.90
5246;DHT22;54412;51.206;6.888;2023-07-20T12:48:37;24.30;99.90
5246;DHT22;54412;51.206;6.888;2023-07-20T12:51:05;24.40;99.90
5246;DHT22;54412;51.206;6.888;2023-07-20T12:53:32;24.10;99.90
5246;DHT22;54412;51.206;6.888;2023-07-20T12:55:58;23.80;99.90
5246;DHT22;54412;51.206;6.888;2023-07-20T12:58:25;23.80;99.90
5246;DHT22;54412;51.206;6.888;2023-07-20T13:00:51;23.90;99.90
5246;DHT22;54412;51.206;6.888;2023-07-20T13:03:17;24.00;99.90
5246;DHT22;54412;51.206;6.888;2023-07-20T13:05:45;24.00;99.90
5246;DHT22;54412;51.206;6.888;2023-07-20T13:08:12;24.00;99.90
5246;DHT22;54412;51.206;6.888;2023-07-20T13:10:38;24.00;99.90
5246;DHT22;54412;51.206;6.888;2023-07-20T13:13:04;24.10;99.90
5246;DHT22;54412;51.206;6.888;2023-07-20T13:15:31;24.20;99.90
5246;DHT22;54412;51.206;6.888;2023-07-20T13:17:59;24.50;99.90
5246;DHT22;54412;51.206;6.888;2023-07-20T13:20:25;24.70;99.90
5246;DHT22;54412;51.206;6.888;2023-07-20T13:22:52;24.90;99.90
5246;DHT22;54412;51.206;6.888;2023-07-20T13:25:18;25.00;99.90
5246;DHT22;54412;51.206;6.888;2023-07-20T13:27:46;24.80;99.90
5246;DHT22;54412;51.206;6.888;2023-07-20T13:30:12;24.50;99.90
5246;DHT22;54412;51.206;6.888;2023-07-20T13:32:45;24.10;99.90
5246;DHT22;54412;51.206;6.888;2023-07-20T13:35:11;23.90;99.90
5246;DHT22;54412;51.206;6.888;2023-07-20T13:37:37;23.70;99.90
5246;DHT22;54412;51.206;6.888;2023-07-20T13:40:04;23.50;99.90
5246;DHT22;54412;51.206;6.888;2023-07-20T13:42:31;23.60;99.90
5246;DHT22;54412;51.206;6.888;2023-07-20T13:44:57;23.50;99.90
5246;DHT22;54412;51.206;6.888;2023-07-20T13:47:23;23.50;99.90
5246;DHT22;54412;51.206;6.888;2023-07-20T13:49:49;23.50;99.90
5246;DHT22;54412;51.206;6.888;2023-07-20T13:52:15;23.50;99.90
5246;DHT22;54412;51.206;6.888;2023-07-20T13:54:40;23.30;99.90
5246;DHT22;54412;51.206;6.888;2023-07-20T13:57:06;23.10;99.90
5246;DHT22;54412;51.206;6.888;2023-07-20T13:59:32;23.10;99.90
5246;DHT22;54412;51.206;6.888;2023-07-20T14:01:58;23.10;99.90
5246;DHT22;54412;51.206;6.888;2023-07-20T14:04:23;23.10;99.90
5246;DHT22;54412;51.206;6.888;2023-07-20T14:06:51;23.10;99.90
5246;DHT22;54412;51.206;6.888;2023-07-20T14:09:16;23.10;99.90
5246;DHT22;54412;51.206;6.888;2023-07-20T14:11:42;23.10;99.90
5246;DHT22;54412;51.206;6.888;2023-07-20T14:14:08;23.00;99.90
5246;DHT22;54412;51.206;6.888;2023-07-20T14:16:33;23.10;99.90
5246;DHT22;54412;51.206;6.888;2023-07-20T14:18:59;23.00;99.90
5246;DHT22;54412;51.206;6.888;2023-07-20T14:21:25;23.10;99.90
5246;DHT22;54412;51.206;6.888;2023-07-20T14:23:51;23.10;99.90
5246;DHT22;54412;51.206;6.888;2023-07-20T14:26:20;23.00;99.90
5246;DHT22;54412;51.206;6.888;2023-07-20T14:28:46;23.00;99.90
5246;DHT22;54412;51.206;6.888;2023-07-20T14:31:12;23.00;99.90
5246;DHT22;54412;51.206;6.888;2023-07-20T14:33:39;23.00;99.90
5246;DHT22;54412;51.206;6.888;2023-07-20T14:36:05;23.00;99.90
5246;DHT22;54412;51.206;6.888;2023-07-20T14:38:31;23.10;99.90
5246;DHT22;54412;51.206;6.888;2023-07-20T14:40:58;23.20;99.90
5246;DHT22;54412;51.206;6.888;2023-07-20T14:43:24;23.40;99.90
5246;DHT22;54412;51.206;6.888;2023-07-20T14:45:50;23.40;99.90
5246;DHT22;54412;51.206;6.888;2023-07-20T14:48:15;23.50;99.90
5246;DHT22;54412;51.206;6.888;2023-07-20T14:50:41;23.50;99.90
5246;DHT22;54412;51.206;6.888;2023-07-20T14:53:07;23.60;99.90
5246;DHT22;54412;51.206;6.888;2023-07-20T14:55:33;23.70;99.90
5246;DHT22;54412;51.206;6.888;2023-07-20T14:57:59;24.00;99.90
5246;DHT22;54412;51.206;6.888;2023-07-20T15:00:25;24.20;99.90
5246;DHT22;54412;51.206;6.888;2023-07-20T15:02:51;24.30;99.90
5246;DHT22;54412;51.206;6.888;2023-07-20T15:05:22;24.40;99.90
5246;DHT22;54412;51.206;6.888;2023-07-20T15:07:49;24.50;99.90
5246;DHT22;54412;51.206;6.888;2023-07-20T15:10:15;24.20;99.90
5246;DHT22;54412;51.206;6.888;2023-07-20T15:12:41;24.20;99.90
5246;DHT22;54412;51.206;6.888;2023-07-20T15:15:09;24.10;99.90
5246;DHT22;54412;51.206;6.888;2023-07-20T15:17:37;24.20;99.90
5246;DHT22;54412;51.206;6.888;2023-07-20T15:20:05;24.20;99.90
5246;DHT22;54412;51.206;6.888;2023-07-20T15:22:33;24.00;99.90
5246;DHT22;54412;51.206;6.888;2023-07-20T15:24:59;23.90;99.90
5246;DHT22;54412;51.206;6.888;2023-07-20T15:27:26;23.90;99.90
5246;DHT22;54412;51.206;6.888;2023-07-20T15:29:51;23.80;99.90
5246;DHT22;54412;51.206;6.888;2023-07-20T15:32:20;23.80;99.90
5246;DHT22;54412;51.206;6.888;2023-07-20T15:34:47;23.80;99.90
5246;DHT22;54412;51.206;6.888;2023-07-20T15:37:13;23.70;99.90
5246;DHT22;54412;51.206;6.888;2023-07-20T15:39:39;23.70;99.90
5246;DHT22;54412;51.206;6.888;2023-07-20T15:42:05;23.70;99.90
5246;DHT22;54412;51.206;6.888;2023-07-20T15:44:31;23.80;99.90
5246;DHT22;54412;51.206;6.888;2023-07-20T15:46:57;23.90;99.90
5246;DHT22;54412;51.206;6.888;2023-07-20T15:49:23;24.00;99.90
5246;DHT22;54412;51.206;6.888;2023-07-20T15:51:55;24.00;99.90